sensor_id;sensor_type;location;lat;lon;timestamp;P1;durP1;ratioP1;P2;durP2;ratioP2
25079;SDS011;13071;48.868;9.996;2022-11-23T00:01:16;4.53;;;1.85;;
25079;SDS011;13071;48.868;9.996;2022-11-23T00:03:44;3.25;;;1.77;;
25079;SDS011;13071;48.868;9.996;2022-11-23T00:06:12;5.82;;;2.08;;
25079;SDS011;13071;48.868;9.996;2022-11-23T00:08:40;2.65;;;1.60;;
25079;SDS011;13071;48.868;9.996;2022-11-23T00:11:07;3.70;;;1.65;;
25079;SDS011;13071;48.868;9.996;2022-11-23T00:13:34;2.53;;;1.83;;
25079;SDS011;13071;48.868;9.996;2022-11-23T00:16:05;2.38;;;1.55;;
25079;SDS011;13071;48.868;9.996;2022-11-23T00:18:32;3.55;;;1.95;;
25079;SDS011;13071;48.868;9.996;2022-11-23T00:20:59;4.30;;;1.73;;
25079;SDS011;13071;48.868;9.996;2022-11-23T00:23:25;2.25;;;1.65;;
25079;SDS011;13071;48.868;9.996;2022-11-23T00:25:52;3.85;;;1.73;;
25079;SDS011;13071;48.868;9.996;2022-11-23T00:28:19;4.28;;;1.75;;
25079;SDS011;13071;48.868;9.996;2022-11-23T00:30:47;6.50;;;2.00;;
25079;SDS011;13071;48.868;9.996;2022-11-23T00:33:15;1.67;;;1.50;;
25079;SDS011;13071;48.868;9.996;2022-11-23T00:35:42;2.85;;;1.85;;
25079;SDS011;13071;48.868;9.996;2022-11-23T00:38:09;3.70;;;1.70;;
25079;SDS011;13071;48.868;9.996;2022-11-23T00:40:36;4.30;;;1.63;;
25079;SDS011;13071;48.868;9.996;2022-11-23T00:43:02;1.73;;;1.55;;
25079;SDS011;13071;48.868;9.996;2022-11-23T00:45:29;3.75;;;2.00;;
25079;SDS011;13071;48.868;9.996;2022-11-23T00:47:56;4.90;;;1.92;;
25079;SDS011;13071;48.868;9.996;2022-11-23T00:50:24;7.45;;;2.63;;
25079;SDS011;13071;48.868;9.996;2022-11-23T00:52:50;3.88;;;1.88;;
25079;SDS011;13071;48.868;9.996;2022-11-23T00:55:17;4.35;;;2.40;;
25079;SDS011;13071;48.868;9.996;2022-11-23T00:57:44;3.78;;;2.30;;
25079;SDS011;13071;48.868;9.996;2022-11-23T01:00:11;8.23;;;2.47;;
25079;SDS011;13071;48.868;9.996;2022-11-23T01:02:38;7.30;;;2.40;;
25079;SDS011;13071;48.868;9.996;2022-11-23T01:05:05;6.38;;;2.28;;
25079;SDS011;13071;48.868;9.996;2022-11-23T01:07:33;7.72;;;2.60;;
25079;SDS011;13071;48.868;9.996;2022-11-23T01:10:00;6.43;;;2.00;;
25079;SDS011;13071;48.868;9.996;2022-11-23T01:12:27;6.65;;;2.67;;
25079;SDS011;13071;48.868;9.996;2022-11-23T01:14:54;5.47;;;1.80;;
25079;SDS011;13071;48.868;9.996;2022-11-23T01:17:20;6.35;;;2.00;;
25079;SDS011;13071;48.868;9.996;2022-11-23T01:19:47;2.88;;;1.73;;
25079;SDS011;13071;48.868;9.996;2022-11-23T01:22:14;5.43;;;2.17;;
25079;SDS011;13071;48.868;9.996;2022-11-23T01:24:42;5.10;;;2.00;;
25079;SDS011;13071;48.868;9.996;2022-11-23T01:27:08;2.10;;;1.50;;
25079;SDS011;13071;48.868;9.996;2022-11-23T01:29:35;3.13;;;1.88;;
25079;SDS011;13071;48.868;9.996;2022-11-23T01:32:01;3.95;;;1.70;;
25079;SDS011;13071;48.868;9.996;2022-11-23T01:34:28;7.85;;;1.70;;
25079;SDS011;13071;48.868;9.996;2022-11-23T01:36:55;3.60;;;1.98;;
25079;SDS011;13071;48.868;9.996;2022-11-23T01:39:21;3.95;;;1.90;;
25079;SDS011;13071;48.868;9.996;2022-11-23T01:41:49;5.22;;;2.13;;
25079;SDS011;13071;48.868;9.996;2022-11-23T01:44:23;5.57;;;2.13;;
25079;SDS011;13071;48.868;9.996;2022-11-23T01:46:54;6.43;;;1.95;;
25079;SDS011;13071;48.868;9.996;2022-11-23T01:49:22;4.80;;;1.85;;
25079;SDS011;13071;48.868;9.996;2022-11-23T01:51:50;9.32;;;2.00;;
25079;SDS011;13071;48.868;9.996;2022-11-23T01:54:21;9.50;;;1.92;;
25079;SDS011;13071;48.868;9.996;2022-11-23T01:56:53;3.95;;;1.83;;
25079;SDS011;13071;48.868;9.996;2022-11-23T01:59:25;4.50;;;1.48;;
25079;SDS011;13071;48.868;9.996;2022-11-23T02:01:53;4.93;;;1.70;;
25079;SDS011;13071;48.868;9.996;2022-11-23T02:04:21;8.88;;;1.90;;
25079;SDS011;13071;48.868;9.996;2022-11-23T02:06:50;1.83;;;1.60;;
25079;SDS011;13071;48.868;9.996;2022-11-23T02:09:18;2.72;;;1.70;;
25079;SDS011;13071;48.868;9.996;2022-11-23T02:11:47;4.03;;;1.48;;
25079;SDS011;13071;48.868;9.996;2022-11-23T02:14:15;4.22;;;1.50;;
25079;SDS011;13071;48.868;9.996;2022-11-23T02:16:42;1.50;;;1.40;;
25079;SDS011;13071;48.868;9.996;2022-11-23T02:19:11;4.85;;;1.35;;
25079;SDS011;13071;48.868;9.996;2022-11-23T02:21:43;5.85;;;1.38;;
25079;SDS011;13071;48.868;9.996;2022-11-23T02:24:11;1.65;;;1.27;;
25079;SDS011;13071;48.868;9.996;2022-11-23T02:26:47;2.33;;;1.13;;
25079;SDS011;13071;48.868;9.996;2022-11-23T02:29:16;1.52;;;1.17;;
25079;SDS011;13071;48.868;9.996;2022-11-23T02:31:47;5.28;;;1.55;;
25079;SDS011;13071;48.868;9.996;2022-11-23T02:34:15;1.80;;;1.02;;
25079;SDS011;13071;48.868;9.996;2022-11-23T02:36:42;2.75;;;1.52;;
25079;SDS011;13071;48.868;9.996;2022-11-23T02:39:11;3.08;;;1.13;;
25079;SDS011;13071;48.868;9.996;2022-11-23T02:41:40;2.15;;;1.35;;
25079;SDS011;13071;48.868;9.996;2022-11-23T02:44:13;2.63;;;1.33;;
25079;SDS011;13071;48.868;9.996;2022-11-23T02:46:49;2.30;;;1.25;;
25079;SDS011;13071;48.868;9.996;2022-11-23T02:49:16;2.42;;;1.25;;
25079;SDS011;13071;48.868;9.996;2022-11-23T02:51:43;1.50;;;1.13;;
25079;SDS011;13071;48.868;9.996;2022-11-23T02:54:09;5.45;;;1.67;;
25079;SDS011;13071;48.868;9.996;2022-11-23T02:56:36;2.38;;;1.30;;
25079;SDS011;13071;48.868;9.996;2022-11-23T02:59:03;1.63;;;1.10;;
25079;SDS011;13071;48.868;9.996;2022-11-23T03:01:31;1.98;;;0.88;;
25079;SDS011;13071;48.868;9.996;2022-11-23T03:03:57;1.95;;;1.23;;
25079;SDS011;13071;48.868;9.996;2022-11-23T03:06:24;1.88;;;1.63;;
25079;SDS011;13071;48.868;9.996;2022-11-23T03:08:51;4.28;;;1.55;;
25079;SDS011;13071;48.868;9.996;2022-11-23T03:11:17;2.58;;;1.45;;
25079;SDS011;13071;48.868;9.996;2022-11-23T03:13:44;3.42;;;1.60;;
25079;SDS011;13071;48.868;9.996;2022-11-23T03:16:11;3.80;;;1.70;;
25079;SDS011;13071;48.868;9.996;2022-11-23T03:18:39;3.17;;;1.35;;
25079;SDS011;13071;48.868;9.996;2022-11-23T03:21:06;3.58;;;1.45;;
25079;SDS011;13071;48.868;9.996;2022-11-23T03:23:33;4.85;;;1.67;;
25079;SDS011;13071;48.868;9.996;2022-11-23T03:26:00;1.95;;;1.70;;
25079;SDS011;13071;48.868;9.996;2022-11-23T03:28:27;6.75;;;2.20;;
25079;SDS011;13071;48.868;9.996;2022-11-23T03:30:54;5.95;;;2.20;;
25079;SDS011;13071;48.868;9.996;2022-11-23T03:33:22;9.50;;;2.20;;
25079;SDS011;13071;48.868;9.996;2022-11-23T03:35:50;5.13;;;1.80;;
25079;SDS011;13071;48.868;9.996;2022-11-23T03:38:16;9.73;;;2.33;;
25079;SDS011;13071;48.868;9.996;2022-11-23T03:40:43;2.80;;;1.90;;
25079;SDS011;13071;48.868;9.996;2022-11-23T03:43:10;4.97;;;1.67;;
25079;SDS011;13071;48.868;9.996;2022-11-23T03:45:37;1.25;;;1.10;;
25079;SDS011;13071;48.868;9.996;2022-11-23T03:48:04;2.13;;;1.20;;
25079;SDS011;13071;48.868;9.996;2022-11-23T03:50:31;2.10;;;1.42;;
25079;SDS011;13071;48.868;9.996;2022-11-23T03:52:59;1.88;;;1.27;;
25079;SDS011;13071;48.868;9.996;2022-11-23T03:55:26;2.30;;;1.25;;
25079;SDS011;13071;48.868;9.996;2022-11-23T03:57:52;5.40;;;1.80;;
25079;SDS011;13071;48.868;9.996;2022-11-23T04:00:23;2.53;;;1.13;;
25079;SDS011;13071;48.868;9.996;2022-11-23T04:02:50;2.38;;;0.98;;
25079;SDS011;13071;48.868;9.996;2022-11-23T04:05:17;4.68;;;1.40;;
25079;SDS011;13071;48.868;9.996;2022-11-23T04:07:44;3.63;;;1.60;;
25079;SDS011;13071;48.868;9.996;2022-11-23T04:12:41;4.00;;;2.05;;
25079;SDS011;13071;48.868;9.996;2022-11-23T04:15:08;4.97;;;1.90;;
25079;SDS011;13071;48.868;9.996;2022-11-23T04:17:35;1.67;;;1.52;;
25079;SDS011;13071;48.868;9.996;2022-11-23T04:20:02;4.10;;;1.95;;
25079;SDS011;13071;48.868;9.996;2022-11-23T04:22:29;4.55;;;2.33;;
25079;SDS011;13071;48.868;9.996;2022-11-23T04:24:56;4.15;;;1.77;;
25079;SDS011;13071;48.868;9.996;2022-11-23T04:27:24;7.53;;;2.10;;
25079;SDS011;13071;48.868;9.996;2022-11-23T04:29:50;8.38;;;2.30;;
25079;SDS011;13071;48.868;9.996;2022-11-23T04:32:17;4.70;;;2.08;;
25079;SDS011;13071;48.868;9.996;2022-11-23T04:34:44;3.35;;;1.98;;
25079;SDS011;13071;48.868;9.996;2022-11-23T04:37:10;5.13;;;2.38;;
25079;SDS011;13071;48.868;9.996;2022-11-23T04:39:37;2.75;;;1.92;;
25079;SDS011;13071;48.868;9.996;2022-11-23T04:42:03;8.30;;;2.30;;
25079;SDS011;13071;48.868;9.996;2022-11-23T04:44:31;4.85;;;1.75;;
25079;SDS011;13071;48.868;9.996;2022-11-23T04:46:58;9.27;;;2.17;;
25079;SDS011;13071;48.868;9.996;2022-11-23T04:49:25;5.05;;;1.88;;
25079;SDS011;13071;48.868;9.996;2022-11-23T04:51:51;5.38;;;1.98;;
25079;SDS011;13071;48.868;9.996;2022-11-23T04:54:18;5.10;;;1.80;;
25079;SDS011;13071;48.868;9.996;2022-11-23T04:56:45;7.47;;;2.45;;
25079;SDS011;13071;48.868;9.996;2022-11-23T04:59:11;11.15;;;2.20;;
25079;SDS011;13071;48.868;9.996;2022-11-23T05:01:39;4.05;;;1.42;;
25079;SDS011;13071;48.868;9.996;2022-11-23T05:04:06;5.50;;;1.83;;
25079;SDS011;13071;48.868;9.996;2022-11-23T05:06:33;4.55;;;1.42;;
25079;SDS011;13071;48.868;9.996;2022-11-23T05:08:59;5.07;;;1.92;;
25079;SDS011;13071;48.868;9.996;2022-11-23T05:11:26;3.22;;;2.00;;
25079;SDS011;13071;48.868;9.996;2022-11-23T05:13:52;7.05;;;2.28;;
25079;SDS011;13071;48.868;9.996;2022-11-23T05:16:19;3.58;;;1.60;;
25079;SDS011;13071;48.868;9.996;2022-11-23T05:18:47;6.63;;;2.17;;
25079;SDS011;13071;48.868;9.996;2022-11-23T05:21:14;3.85;;;1.88;;
25079;SDS011;13071;48.868;9.996;2022-11-23T05:23:40;3.47;;;1.75;;
25079;SDS011;13071;48.868;9.996;2022-11-23T05:26:07;7.30;;;1.92;;
25079;SDS011;13071;48.868;9.996;2022-11-23T05:28:33;4.47;;;1.48;;
25079;SDS011;13071;48.868;9.996;2022-11-23T05:31:01;1.55;;;1.45;;
25079;SDS011;13071;48.868;9.996;2022-11-23T05:33:28;4.40;;;2.08;;
25079;SDS011;13071;48.868;9.996;2022-11-23T05:35:56;4.13;;;1.75;;
25079;SDS011;13071;48.868;9.996;2022-11-23T05:38:22;6.05;;;1.80;;
25079;SDS011;13071;48.868;9.996;2022-11-23T05:40:49;3.95;;;1.90;;
25079;SDS011;13071;48.868;9.996;2022-11-23T05:43:16;3.95;;;1.90;;
25079;SDS011;13071;48.868;9.996;2022-11-23T05:45:42;3.42;;;1.98;;
25079;SDS011;13071;48.868;9.996;2022-11-23T05:48:09;3.78;;;1.75;;
25079;SDS011;13071;48.868;9.996;2022-11-23T05:50:36;3.80;;;1.70;;
25079;SDS011;13071;48.868;9.996;2022-11-23T05:53:04;3.28;;;1.92;;
25079;SDS011;13071;48.868;9.996;2022-11-23T05:55:30;2.58;;;1.52;;
25079;SDS011;13071;48.868;9.996;2022-11-23T05:57:57;3.50;;;1.73;;
25079;SDS011;13071;48.868;9.996;2022-11-23T06:00:24;10.93;;;1.83;;
25079;SDS011;13071;48.868;9.996;2022-11-23T06:02:50;5.38;;;1.83;;
25079;SDS011;13071;48.868;9.996;2022-11-23T06:05:17;5.20;;;1.58;;
25079;SDS011;13071;48.868;9.996;2022-11-23T06:07:44;5.40;;;1.90;;
25079;SDS011;13071;48.868;9.996;2022-11-23T06:10:12;3.42;;;1.80;;
25079;SDS011;13071;48.868;9.996;2022-11-23T06:12:38;10.60;;;2.10;;
25079;SDS011;13071;48.868;9.996;2022-11-23T06:15:06;2.70;;;1.88;;
25079;SDS011;13071;48.868;9.996;2022-11-23T06:17:34;4.43;;;1.92;;
25079;SDS011;13071;48.868;9.996;2022-11-23T06:20:00;4.20;;;1.63;;
25079;SDS011;13071;48.868;9.996;2022-11-23T06:22:27;4.60;;;1.63;;
25079;SDS011;13071;48.868;9.996;2022-11-23T06:24:54;4.28;;;1.98;;
25079;SDS011;13071;48.868;9.996;2022-11-23T06:27:22;3.08;;;1.90;;
25079;SDS011;13071;48.868;9.996;2022-11-23T06:29:48;5.07;;;1.80;;
25079;SDS011;13071;48.868;9.996;2022-11-23T06:32:15;4.65;;;1.85;;
25079;SDS011;13071;48.868;9.996;2022-11-23T06:34:42;4.82;;;2.17;;
25079;SDS011;13071;48.868;9.996;2022-11-23T06:37:08;3.80;;;2.13;;
25079;SDS011;13071;48.868;9.996;2022-11-23T06:39:35;7.55;;;2.20;;
25079;SDS011;13071;48.868;9.996;2022-11-23T06:42:02;6.20;;;2.60;;
25079;SDS011;13071;48.868;9.996;2022-11-23T06:44:30;3.08;;;2.00;;
25079;SDS011;13071;48.868;9.996;2022-11-23T06:46:56;7.07;;;2.50;;
25079;SDS011;13071;48.868;9.996;2022-11-23T06:49:23;3.05;;;2.00;;
25079;SDS011;13071;48.868;9.996;2022-11-23T06:51:50;2.92;;;2.05;;
25079;SDS011;13071;48.868;9.996;2022-11-23T06:54:17;6.43;;;1.95;;
25079;SDS011;13071;48.868;9.996;2022-11-23T06:56:43;6.00;;;2.30;;
25079;SDS011;13071;48.868;9.996;2022-11-23T06:59:10;5.30;;;2.05;;
25079;SDS011;13071;48.868;9.996;2022-11-23T07:01:38;7.10;;;2.83;;
25079;SDS011;13071;48.868;9.996;2022-11-23T07:04:05;4.80;;;2.00;;
25079;SDS011;13071;48.868;9.996;2022-11-23T07:06:32;5.45;;;1.70;;
25079;SDS011;13071;48.868;9.996;2022-11-23T07:08:58;4.32;;;2.22;;
25079;SDS011;13071;48.868;9.996;2022-11-23T07:11:26;2.05;;;1.50;;
25079;SDS011;13071;48.868;9.996;2022-11-23T07:13:53;3.05;;;1.88;;
25079;SDS011;13071;48.868;9.996;2022-11-23T07:16:20;2.92;;;1.83;;
25079;SDS011;13071;48.868;9.996;2022-11-23T07:18:48;3.67;;;1.70;;
25079;SDS011;13071;48.868;9.996;2022-11-23T07:21:14;4.55;;;1.75;;
25079;SDS011;13071;48.868;9.996;2022-11-23T07:23:42;4.15;;;1.92;;
25079;SDS011;13071;48.868;9.996;2022-11-23T07:26:08;3.70;;;1.85;;
25079;SDS011;13071;48.868;9.996;2022-11-23T07:28:35;3.25;;;1.80;;
25079;SDS011;13071;48.868;9.996;2022-11-23T07:31:01;5.35;;;1.58;;
25079;SDS011;13071;48.868;9.996;2022-11-23T07:33:28;2.50;;;1.75;;
25079;SDS011;13071;48.868;9.996;2022-11-23T07:35:59;2.95;;;1.70;;
25079;SDS011;13071;48.868;9.996;2022-11-23T07:38:25;3.92;;;2.20;;
25079;SDS011;13071;48.868;9.996;2022-11-23T07:40:52;6.72;;;2.30;;
25079;SDS011;13071;48.868;9.996;2022-11-23T07:43:19;3.17;;;2.10;;
25079;SDS011;13071;48.868;9.996;2022-11-23T07:45:45;8.43;;;2.22;;
25079;SDS011;13071;48.868;9.996;2022-11-23T07:48:12;4.65;;;2.38;;
25079;SDS011;13071;48.868;9.996;2022-11-23T07:50:38;6.15;;;2.38;;
25079;SDS011;13071;48.868;9.996;2022-11-23T07:53:06;9.65;;;2.85;;
25079;SDS011;13071;48.868;9.996;2022-11-23T07:55:33;7.65;;;2.30;;
25079;SDS011;13071;48.868;9.996;2022-11-23T07:58:00;3.88;;;2.17;;
25079;SDS011;13071;48.868;9.996;2022-11-23T08:00:28;3.55;;;2.30;;
25079;SDS011;13071;48.868;9.996;2022-11-23T08:02:55;3.45;;;2.20;;
25079;SDS011;13071;48.868;9.996;2022-11-23T08:05:22;7.63;;;2.50;;
25079;SDS011;13071;48.868;9.996;2022-11-23T08:07:50;7.93;;;2.38;;
25079;SDS011;13071;48.868;9.996;2022-11-23T08:10:18;7.95;;;2.30;;
25079;SDS011;13071;48.868;9.996;2022-11-23T08:12:45;2.90;;;1.83;;
25079;SDS011;13071;48.868;9.996;2022-11-23T08:15:11;3.72;;;2.22;;
25079;SDS011;13071;48.868;9.996;2022-11-23T08:17:38;6.82;;;2.30;;
25079;SDS011;13071;48.868;9.996;2022-11-23T08:20:05;6.40;;;2.72;;
25079;SDS011;13071;48.868;9.996;2022-11-23T08:22:32;3.70;;;2.25;;
25079;SDS011;13071;48.868;9.996;2022-11-23T08:24:59;3.63;;;2.08;;
25079;SDS011;13071;48.868;9.996;2022-11-23T08:27:26;4.47;;;1.85;;
25079;SDS011;13071;48.868;9.996;2022-11-23T08:29:53;2.80;;;1.67;;
25079;SDS011;13071;48.868;9.996;2022-11-23T08:32:20;3.75;;;2.10;;
25079;SDS011;13071;48.868;9.996;2022-11-23T08:34:46;4.40;;;1.75;;
25079;SDS011;13071;48.868;9.996;2022-11-23T08:37:13;4.72;;;2.25;;
25079;SDS011;13071;48.868;9.996;2022-11-23T08:39:39;4.35;;;1.90;;
25079;SDS011;13071;48.868;9.996;2022-11-23T08:42:06;4.50;;;1.77;;
25079;SDS011;13071;48.868;9.996;2022-11-23T08:44:34;2.75;;;2.08;;
25079;SDS011;13071;48.868;9.996;2022-11-23T08:47:01;2.40;;;1.90;;
25079;SDS011;13071;48.868;9.996;2022-11-23T08:49:27;4.20;;;2.40;;
25079;SDS011;13071;48.868;9.996;2022-11-23T08:51:54;5.57;;;2.35;;
25079;SDS011;13071;48.868;9.996;2022-11-23T08:54:20;5.70;;;2.00;;
25079;SDS011;13071;48.868;9.996;2022-11-23T08:56:48;6.47;;;2.00;;
25079;SDS011;13071;48.868;9.996;2022-11-23T08:59:15;4.93;;;2.08;;
25079;SDS011;13071;48.868;9.996;2022-11-23T09:01:44;5.40;;;1.63;;
25079;SDS011;13071;48.868;9.996;2022-11-23T09:04:11;5.30;;;2.10;;
25079;SDS011;13071;48.868;9.996;2022-11-23T09:06:38;3.45;;;1.40;;
25079;SDS011;13071;48.868;9.996;2022-11-23T09:09:04;4.40;;;1.67;;
25079;SDS011;13071;48.868;9.996;2022-11-23T09:11:31;4.32;;;1.60;;
25079;SDS011;13071;48.868;9.996;2022-11-23T09:13:57;2.33;;;1.55;;
25079;SDS011;13071;48.868;9.996;2022-11-23T09:16:24;2.85;;;1.65;;
25079;SDS011;13071;48.868;9.996;2022-11-23T09:18:55;3.10;;;1.80;;
25079;SDS011;13071;48.868;9.996;2022-11-23T09:21:22;9.55;;;1.70;;
25079;SDS011;13071;48.868;9.996;2022-11-23T09:23:53;3.33;;;1.85;;
25079;SDS011;13071;48.868;9.996;2022-11-23T09:26:20;10.85;;;2.25;;
25079;SDS011;13071;48.868;9.996;2022-11-23T09:28:46;2.35;;;1.30;;
25079;SDS011;13071;48.868;9.996;2022-11-23T09:31:13;1.67;;;1.58;;
25079;SDS011;13071;48.868;9.996;2022-11-23T09:33:40;4.75;;;1.65;;
25079;SDS011;13071;48.868;9.996;2022-11-23T09:36:08;7.97;;;1.42;;
25079;SDS011;13071;48.868;9.996;2022-11-23T09:38:35;2.72;;;1.83;;
25079;SDS011;13071;48.868;9.996;2022-11-23T09:41:03;3.33;;;2.00;;
25079;SDS011;13071;48.868;9.996;2022-11-23T09:43:49;5.82;;;1.90;;
25079;SDS011;13071;48.868;9.996;2022-11-23T09:46:27;2.30;;;1.70;;
25079;SDS011;13071;48.868;9.996;2022-11-23T09:49:09;8.40;;;2.75;;
25079;SDS011;13071;48.868;9.996;2022-11-23T09:51:40;7.03;;;1.92;;
25079;SDS011;13071;48.868;9.996;2022-11-23T09:54:10;4.38;;;1.38;;
25079;SDS011;13071;48.868;9.996;2022-11-23T09:56:47;1.73;;;1.05;;
25079;SDS011;13071;48.868;9.996;2022-11-23T09:59:19;6.78;;;1.45;;
25079;SDS011;13071;48.868;9.996;2022-11-23T10:01:55;2.05;;;1.48;;
25079;SDS011;13071;48.868;9.996;2022-11-23T10:04:22;4.68;;;1.50;;
25079;SDS011;13071;48.868;9.996;2022-11-23T10:06:52;5.20;;;1.70;;
25079;SDS011;13071;48.868;9.996;2022-11-23T10:09:25;4.20;;;1.38;;
25079;SDS011;13071;48.868;9.996;2022-11-23T10:12:08;1.92;;;1.40;;
25079;SDS011;13071;48.868;9.996;2022-11-23T10:14:58;4.72;;;1.40;;
25079;SDS011;13071;48.868;9.996;2022-11-23T10:17:44;2.50;;;1.30;;
25079;SDS011;13071;48.868;9.996;2022-11-23T10:20:31;4.25;;;1.20;;
25079;SDS011;13071;48.868;9.996;2022-11-23T10:23:12;5.03;;;1.13;;
25079;SDS011;13071;48.868;9.996;2022-11-23T10:25:44;7.05;;;0.93;;
25079;SDS011;13071;48.868;9.996;2022-11-23T10:28:15;2.92;;;0.88;;
25079;SDS011;13071;48.868;9.996;2022-11-23T10:30:45;3.25;;;1.40;;
25079;SDS011;13071;48.868;9.996;2022-11-23T10:33:20;2.15;;;0.88;;
25079;SDS011;13071;48.868;9.996;2022-11-23T10:35:54;2.80;;;1.00;;
25079;SDS011;13071;48.868;9.996;2022-11-23T10:38:24;0.88;;;0.80;;
25079;SDS011;13071;48.868;9.996;2022-11-23T10:40:54;2.50;;;0.70;;
25079;SDS011;13071;48.868;9.996;2022-11-23T10:43:28;2.03;;;1.00;;
25079;SDS011;13071;48.868;9.996;2022-11-23T10:48:49;0.75;;;0.65;;
25079;SDS011;13071;48.868;9.996;2022-11-23T10:51:20;1.50;;;0.82;;
25079;SDS011;13071;48.868;9.996;2022-11-23T10:53:54;1.55;;;0.90;;
25079;SDS011;13071;48.868;9.996;2022-11-23T10:56:23;2.22;;;0.80;;
25079;SDS011;13071;48.868;9.996;2022-11-23T10:58:50;5.32;;;1.02;;
25079;SDS011;13071;48.868;9.996;2022-11-23T11:01:18;3.33;;;1.25;;
25079;SDS011;13071;48.868;9.996;2022-11-23T11:03:47;0.60;;;0.60;;
25079;SDS011;13071;48.868;9.996;2022-11-23T11:06:20;2.25;;;0.80;;
25079;SDS011;13071;48.868;9.996;2022-11-23T11:08:49;3.95;;;0.73;;
25079;SDS011;13071;48.868;9.996;2022-11-23T11:11:23;4.65;;;0.75;;
25079;SDS011;13071;48.868;9.996;2022-11-23T11:13:52;1.73;;;0.98;;
25079;SDS011;13071;48.868;9.996;2022-11-23T11:16:28;1.75;;;0.80;;
25079;SDS011;13071;48.868;9.996;2022-11-23T11:18:56;2.05;;;1.00;;
25079;SDS011;13071;48.868;9.996;2022-11-23T11:21:25;3.65;;;1.00;;
25079;SDS011;13071;48.868;9.996;2022-11-23T11:23:58;2.67;;;0.82;;
25079;SDS011;13071;48.868;9.996;2022-11-23T11:26:29;2.50;;;0.73;;
25079;SDS011;13071;48.868;9.996;2022-11-23T11:28:57;4.70;;;0.90;;
25079;SDS011;13071;48.868;9.996;2022-11-23T11:31:31;1.15;;;0.70;;
25079;SDS011;13071;48.868;9.996;2022-11-23T11:34:10;2.70;;;0.65;;
25079;SDS011;13071;48.868;9.996;2022-11-23T11:36:45;2.45;;;0.60;;
25079;SDS011;13071;48.868;9.996;2022-11-23T11:39:18;4.88;;;0.90;;
25079;SDS011;13071;48.868;9.996;2022-11-23T11:41:50;1.85;;;0.80;;
25079;SDS011;13071;48.868;9.996;2022-11-23T11:44:20;0.68;;;0.68;;
25079;SDS011;13071;48.868;9.996;2022-11-23T11:46:51;1.23;;;0.80;;
25079;SDS011;13071;48.868;9.996;2022-11-23T11:49:24;3.75;;;1.05;;
25079;SDS011;13071;48.868;9.996;2022-11-23T11:51:57;1.95;;;1.00;;
25079;SDS011;13071;48.868;9.996;2022-11-23T11:54:30;3.67;;;1.00;;
25079;SDS011;13071;48.868;9.996;2022-11-23T11:57:02;2.13;;;0.73;;
25079;SDS011;13071;48.868;9.996;2022-11-23T11:59:33;3.20;;;0.75;;
25079;SDS011;13071;48.868;9.996;2022-11-23T12:02:13;2.60;;;0.82;;
25079;SDS011;13071;48.868;9.996;2022-11-23T12:04:45;1.58;;;0.93;;
25079;SDS011;13071;48.868;9.996;2022-11-23T12:07:20;0.85;;;0.65;;
25079;SDS011;13071;48.868;9.996;2022-11-23T12:09:54;3.03;;;0.85;;
25079;SDS011;13071;48.868;9.996;2022-11-23T12:12:32;1.23;;;0.70;;
25079;SDS011;13071;48.868;9.996;2022-11-23T12:15:00;0.80;;;0.80;;
25079;SDS011;13071;48.868;9.996;2022-11-23T12:17:34;2.28;;;0.80;;
25079;SDS011;13071;48.868;9.996;2022-11-23T12:20:16;4.40;;;1.20;;
25079;SDS011;13071;48.868;9.996;2022-11-23T12:22:53;2.15;;;1.15;;
25079;SDS011;13071;48.868;9.996;2022-11-23T12:25:28;4.18;;;1.17;;
25079;SDS011;13071;48.868;9.996;2022-11-23T12:28:06;1.25;;;1.00;;
25079;SDS011;13071;48.868;9.996;2022-11-23T12:30:50;1.15;;;0.90;;
25079;SDS011;13071;48.868;9.996;2022-11-23T12:33:31;0.90;;;0.90;;
25079;SDS011;13071;48.868;9.996;2022-11-23T12:36:20;1.08;;;0.90;;
25079;SDS011;13071;48.868;9.996;2022-11-23T12:39:01;0.82;;;0.82;;
25079;SDS011;13071;48.868;9.996;2022-11-23T12:41:37;2.30;;;0.82;;
25079;SDS011;13071;48.868;9.996;2022-11-23T12:44:23;2.05;;;1.40;;
25079;SDS011;13071;48.868;9.996;2022-11-23T12:47:09;2.03;;;0.90;;
25079;SDS011;13071;48.868;9.996;2022-11-23T12:49:45;2.67;;;0.70;;
25079;SDS011;13071;48.868;9.996;2022-11-23T12:52:22;1.10;;;0.82;;
25079;SDS011;13071;48.868;9.996;2022-11-23T12:55:00;3.42;;;0.73;;
25079;SDS011;13071;48.868;9.996;2022-11-23T12:57:33;5.60;;;0.85;;
25079;SDS011;13071;48.868;9.996;2022-11-23T13:00:06;1.05;;;0.73;;
25079;SDS011;13071;48.868;9.996;2022-11-23T13:06:05;3.72;;;0.90;;
25079;SDS011;13071;48.868;9.996;2022-11-23T13:08:53;0.73;;;0.68;;
25079;SDS011;13071;48.868;9.996;2022-11-23T13:11:40;0.98;;;0.65;;
25079;SDS011;13071;48.868;9.996;2022-11-23T13:14:19;1.15;;;1.00;;
25079;SDS011;13071;48.868;9.996;2022-11-23T13:17:00;2.10;;;0.75;;
25079;SDS011;13071;48.868;9.996;2022-11-23T13:19:40;1.20;;;0.63;;
25079;SDS011;13071;48.868;9.996;2022-11-23T13:22:28;1.15;;;0.35;;
25079;SDS011;13071;48.868;9.996;2022-11-23T13:25:00;2.63;;;0.70;;
25079;SDS011;13071;48.868;9.996;2022-11-23T13:27:43;1.63;;;0.60;;
25079;SDS011;13071;48.868;9.996;2022-11-23T13:30:24;1.40;;;0.50;;
25079;SDS011;13071;48.868;9.996;2022-11-23T13:33:22;0.88;;;0.60;;
25079;SDS011;13071;48.868;9.996;2022-11-23T13:35:57;3.60;;;0.63;;
25079;SDS011;13071;48.868;9.996;2022-11-23T13:38:35;0.88;;;0.60;;
25079;SDS011;13071;48.868;9.996;2022-11-23T13:41:03;2.33;;;0.60;;
25079;SDS011;13071;48.868;9.996;2022-11-23T13:44:21;1.55;;;0.60;;
25079;SDS011;13071;48.868;9.996;2022-11-23T13:47:03;1.27;;;0.73;;
25079;SDS011;13071;48.868;9.996;2022-11-23T13:49:43;0.32;;;0.32;;
25079;SDS011;13071;48.868;9.996;2022-11-23T13:52:24;3.78;;;0.50;;
25079;SDS011;13071;48.868;9.996;2022-11-23T13:54:54;3.83;;;0.70;;
25079;SDS011;13071;48.868;9.996;2022-11-23T13:57:25;2.45;;;0.43;;
25079;SDS011;13071;48.868;9.996;2022-11-23T13:59:52;0.73;;;0.65;;
25079;SDS011;13071;48.868;9.996;2022-11-23T14:02:23;2.67;;;0.65;;
25079;SDS011;13071;48.868;9.996;2022-11-23T14:04:53;3.10;;;0.73;;
25079;SDS011;13071;48.868;9.996;2022-11-23T14:07:58;0.30;;;0.30;;
25079;SDS011;13071;48.868;9.996;2022-11-23T14:10:29;0.65;;;0.60;;
25079;SDS011;13071;48.868;9.996;2022-11-23T14:12:59;2.63;;;0.55;;
25079;SDS011;13071;48.868;9.996;2022-11-23T14:15:29;0.55;;;0.55;;
25079;SDS011;13071;48.868;9.996;2022-11-23T14:18:22;0.63;;;0.50;;
25079;SDS011;13071;48.868;9.996;2022-11-23T14:21:10;0.80;;;0.50;;
25079;SDS011;13071;48.868;9.996;2022-11-23T14:26:57;1.38;;;0.50;;
25079;SDS011;13071;48.868;9.996;2022-11-23T14:32:35;1.08;;;0.60;;
25079;SDS011;13071;48.868;9.996;2022-11-23T14:35:19;0.80;;;0.52;;
25079;SDS011;13071;48.868;9.996;2022-11-23T14:38:01;3.50;;;0.65;;
25079;SDS011;13071;48.868;9.996;2022-11-23T14:40:44;0.70;;;0.60;;
25079;SDS011;13071;48.868;9.996;2022-11-23T14:43:19;3.92;;;2.03;;
25079;SDS011;13071;48.868;9.996;2022-11-23T14:45:46;4.60;;;1.98;;
25079;SDS011;13071;48.868;9.996;2022-11-23T14:48:20;2.60;;;1.75;;
25079;SDS011;13071;48.868;9.996;2022-11-23T14:50:52;1.00;;;0.70;;
25079;SDS011;13071;48.868;9.996;2022-11-23T14:53:22;0.95;;;0.90;;
25079;SDS011;13071;48.868;9.996;2022-11-23T14:55:52;2.40;;;0.80;;
25079;SDS011;13071;48.868;9.996;2022-11-23T14:58:19;0.90;;;0.90;;
25079;SDS011;13071;48.868;9.996;2022-11-23T15:00:49;1.10;;;1.00;;
25079;SDS011;13071;48.868;9.996;2022-11-23T15:03:18;1.98;;;1.05;;
25079;SDS011;13071;48.868;9.996;2022-11-23T15:05:46;1.45;;;0.98;;
25079;SDS011;13071;48.868;9.996;2022-11-23T15:08:17;2.92;;;0.60;;
25079;SDS011;13071;48.868;9.996;2022-11-23T15:10:49;1.05;;;0.75;;
25079;SDS011;13071;48.868;9.996;2022-11-23T15:13:23;3.70;;;1.40;;
25079;SDS011;13071;48.868;9.996;2022-11-23T15:15:52;1.13;;;0.80;;
25079;SDS011;13071;48.868;9.996;2022-11-23T15:18:26;1.20;;;0.95;;
25079;SDS011;13071;48.868;9.996;2022-11-23T15:20:56;2.70;;;1.20;;